sensor_id;sensor_type;location;lat;lon;timestamp;temperature;humidity
28087;DHT22;15392;48.912;8.380;2022-10-26T00:01:03;19.00;58.00
28087;DHT22;15392;48.912;8.380;2022-10-26T00:03:37;19.00;58.30
28087;DHT22;15392;48.912;8.380;2022-10-26T00:08:34;19.00;58.00
28087;DHT22;15392;48.912;8.380;2022-10-26T00:11:00;19.00;58.00
28087;DHT22;15392;48.912;8.380;2022-10-26T00:13:26;19.00;58.10
28087;DHT22;15392;48.912;8.380;2022-10-26T00:15:54;19.00;58.10
28087;DHT22;15392;48.912;8.380;2022-10-26T00:18:20;19.00;58.10
28087;DHT22;15392;48.912;8.380;2022-10-26T00:20:46;19.00;58.00
28087;DHT22;15392;48.912;8.380;2022-10-26T00:23:11;19.00;58.00
28087;DHT22;15392;48.912;8.380;2022-10-26T00:25:37;19.00;58.00
28087;DHT22;15392;48.912;8.380;2022-10-26T00:28:03;19.00;58.00
28087;DHT22;15392;48.912;8.380;2022-10-26T00:30:29;19.00;57.90
28087;DHT22;15392;48.912;8.380;2022-10-26T00:32:54;19.00;57.80
28087;DHT22;15392;48.912;8.380;2022-10-26T00:35:20;19.00;57.80
28087;DHT22;15392;48.912;8.380;2022-10-26T00:37:46;19.00;57.80
28087;DHT22;15392;48.912;8.380;2022-10-26T00:40:12;19.00;58.00
28087;DHT22;15392;48.912;8.380;2022-10-26T00:42:38;18.90;58.00
28087;DHT22;15392;48.912;8.380;2022-10-26T00:45:14;19.00;58.00
28087;DHT22;15392;48.912;8.380;2022-10-26T00:47:47;19.00;58.00
28087;DHT22;15392;48.912;8.380;2022-10-26T00:50:20;19.00;58.10
28087;DHT22;15392;48.912;8.380;2022-10-26T00:52:50;19.00;58.40
28087;DHT22;15392;48.912;8.380;2022-10-26T00:55:18;19.00;58.30
28087;DHT22;15392;48.912;8.380;2022-10-26T00:57:47;19.00;58.20
28087;DHT22;15392;48.912;8.380;2022-10-26T01:00:13;19.00;58.10
28087;DHT22;15392;48.912;8.380;2022-10-26T01:02:40;19.00;58.00
28087;DHT22;15392;48.912;8.380;2022-10-26T01:05:06;19.00;58.10
28087;DHT22;15392;48.912;8.380;2022-10-26T01:07:33;19.00;58.10
28087;DHT22;15392;48.912;8.380;2022-10-26T01:09:59;19.00;58.00
28087;DHT22;15392;48.912;8.380;2022-10-26T01:12:25;19.00;58.10
28087;DHT22;15392;48.912;8.380;2022-10-26T01:14:51;19.00;58.00
28087;DHT22;15392;48.912;8.380;2022-10-26T01:23:28;19.10;58.20
28087;DHT22;15392;48.912;8.380;2022-10-26T01:31:33;19.00;57.90
28087;DHT22;15392;48.912;8.380;2022-10-26T01:34:17;19.00;58.00
28087;DHT22;15392;48.912;8.380;2022-10-26T01:36:53;19.00;58.20
28087;DHT22;15392;48.912;8.380;2022-10-26T01:39:40;19.00;58.20
28087;DHT22;15392;48.912;8.380;2022-10-26T01:42:11;19.00;58.30
28087;DHT22;15392;48.912;8.380;2022-10-26T01:44:50;19.00;58.00
28087;DHT22;15392;48.912;8.380;2022-10-26T01:47:19;19.00;58.30
28087;DHT22;15392;48.912;8.380;2022-10-26T01:49:48;18.90;58.20
28087;DHT22;15392;48.912;8.380;2022-10-26T01:52:18;19.00;58.40
28087;DHT22;15392;48.912;8.380;2022-10-26T01:54:44;18.90;58.30
28087;DHT22;15392;48.912;8.380;2022-10-26T01:57:12;19.00;58.20
28087;DHT22;15392;48.912;8.380;2022-10-26T02:00:01;18.90;58.10
28087;DHT22;15392;48.912;8.380;2022-10-26T02:11:37;18.90;58.40
28087;DHT22;15392;48.912;8.380;2022-10-26T02:14:24;18.90;58.50
28087;DHT22;15392;48.912;8.380;2022-10-26T02:17:07;18.90;58.70
28087;DHT22;15392;48.912;8.380;2022-10-26T02:20:03;18.90;58.70
28087;DHT22;15392;48.912;8.380;2022-10-26T02:22:46;18.90;58.90
28087;DHT22;15392;48.912;8.380;2022-10-26T02:25:21;18.90;58.50
28087;DHT22;15392;48.912;8.380;2022-10-26T02:27:53;18.90;58.50
28087;DHT22;15392;48.912;8.380;2022-10-26T02:30:21;18.90;58.50
28087;DHT22;15392;48.912;8.380;2022-10-26T02:32:50;18.90;58.40
28087;DHT22;15392;48.912;8.380;2022-10-26T02:35:21;18.90;58.50
28087;DHT22;15392;48.912;8.380;2022-10-26T02:37:51;18.90;58.50
28087;DHT22;15392;48.912;8.380;2022-10-26T02:40:20;18.90;58.40
28087;DHT22;15392;48.912;8.380;2022-10-26T02:42:49;18.90;58.30
28087;DHT22;15392;48.912;8.380;2022-10-26T02:45:20;18.80;58.20
28087;DHT22;15392;48.912;8.380;2022-10-26T02:47:50;18.80;58.30
28087;DHT22;15392;48.912;8.380;2022-10-26T02:50:18;18.80;58.40
28087;DHT22;15392;48.912;8.380;2022-10-26T02:53:40;18.80;58.50
28087;DHT22;15392;48.912;8.380;2022-10-26T02:55:48;18.80;58.70
28087;DHT22;15392;48.912;8.380;2022-10-26T02:58:29;18.80;58.60
28087;DHT22;15392;48.912;8.380;2022-10-26T03:00:57;18.80;58.90
28087;DHT22;15392;48.912;8.380;2022-10-26T03:03:24;18.80;58.60
28087;DHT22;15392;48.912;8.380;2022-10-26T03:05:50;18.80;58.50
28087;DHT22;15392;48.912;8.380;2022-10-26T03:08:16;18.80;58.60
28087;DHT22;15392;48.912;8.380;2022-10-26T03:10:43;18.80;58.70
28087;DHT22;15392;48.912;8.380;2022-10-26T03:13:11;18.80;58.70
28087;DHT22;15392;48.912;8.380;2022-10-26T03:15:38;18.80;58.70
28087;DHT22;15392;48.912;8.380;2022-10-26T03:18:04;18.80;58.80
28087;DHT22;15392;48.912;8.380;2022-10-26T03:20:30;18.80;58.80
28087;DHT22;15392;48.912;8.380;2022-10-26T03:22:56;18.80;58.80
28087;DHT22;15392;48.912;8.380;2022-10-26T03:25:26;18.80;58.70
28087;DHT22;15392;48.912;8.380;2022-10-26T03:27:59;18.80;58.70
28087;DHT22;15392;48.912;8.380;2022-10-26T03:30:26;18.80;58.70
28087;DHT22;15392;48.912;8.380;2022-10-26T03:32:53;18.80;58.70
28087;DHT22;15392;48.912;8.380;2022-10-26T03:35:19;18.80;58.70
28087;DHT22;15392;48.912;8.380;2022-10-26T03:37:45;18.80;58.60
28087;DHT22;15392;48.912;8.380;2022-10-26T03:40:11;18.80;58.60
28087;DHT22;15392;48.912;8.380;2022-10-26T03:42:37;18.80;58.60
28087;DHT22;15392;48.912;8.380;2022-10-26T03:45:05;18.80;58.60
28087;DHT22;15392;48.912;8.380;2022-10-26T03:47:32;18.70;58.70
28087;DHT22;15392;48.912;8.380;2022-10-26T03:49:58;18.70;58.80
28087;DHT22;15392;48.912;8.380;2022-10-26T03:52:24;18.70;58.80
28087;DHT22;15392;48.912;8.380;2022-10-26T03:54:50;18.70;58.90
28087;DHT22;15392;48.912;8.380;2022-10-26T03:57:16;18.70;58.80
28087;DHT22;15392;48.912;8.380;2022-10-26T03:59:42;18.70;58.80
28087;DHT22;15392;48.912;8.380;2022-10-26T04:02:08;18.70;58.80
28087;DHT22;15392;48.912;8.380;2022-10-26T04:04:36;18.70;58.80
28087;DHT22;15392;48.912;8.380;2022-10-26T04:07:02;18.70;58.80
28087;DHT22;15392;48.912;8.380;2022-10-26T04:09:28;18.70;58.90
28087;DHT22;15392;48.912;8.380;2022-10-26T04:11:53;18.70;58.90
28087;DHT22;15392;48.912;8.380;2022-10-26T04:14:19;18.70;58.90
28087;DHT22;15392;48.912;8.380;2022-10-26T04:16:45;18.70;59.00
28087;DHT22;15392;48.912;8.380;2022-10-26T04:19:10;18.70;59.00
28087;DHT22;15392;48.912;8.380;2022-10-26T04:21:36;18.70;59.00
28087;DHT22;15392;48.912;8.380;2022-10-26T04:24:02;18.70;59.00
28087;DHT22;15392;48.912;8.380;2022-10-26T04:26:28;18.70;59.00
28087;DHT22;15392;48.912;8.380;2022-10-26T04:28:54;18.70;59.10
28087;DHT22;15392;48.912;8.380;2022-10-26T04:31:20;18.70;59.10
28087;DHT22;15392;48.912;8.380;2022-10-26T04:33:46;18.70;59.20
28087;DHT22;15392;48.912;8.380;2022-10-26T04:36:11;18.70;59.30
28087;DHT22;15392;48.912;8.380;2022-10-26T04:38:37;18.70;59.40
28087;DHT22;15392;48.912;8.380;2022-10-26T04:41:03;18.60;59.40
28087;DHT22;15392;48.912;8.380;2022-10-26T04:43:28;18.70;59.50
28087;DHT22;15392;48.912;8.380;2022-10-26T04:45:58;18.60;59.40
28087;DHT22;15392;48.912;8.380;2022-10-26T04:48:24;18.70;59.50
28087;DHT22;15392;48.912;8.380;2022-10-26T04:50:50;18.70;59.40
28087;DHT22;15392;48.912;8.380;2022-10-26T04:53:15;18.60;59.30
28087;DHT22;15392;48.912;8.380;2022-10-26T04:55:41;18.60;59.40
28087;DHT22;15392;48.912;8.380;2022-10-26T04:58:07;18.60;59.50
28087;DHT22;15392;48.912;8.380;2022-10-26T05:00:33;18.60;59.60
28087;DHT22;15392;48.912;8.380;2022-10-26T05:03:00;18.60;59.60
28087;DHT22;15392;48.912;8.380;2022-10-26T05:05:28;18.60;59.60
28087;DHT22;15392;48.912;8.380;2022-10-26T05:07:55;18.60;59.60
28087;DHT22;15392;48.912;8.380;2022-10-26T05:10:22;18.60;59.70
28087;DHT22;15392;48.912;8.380;2022-10-26T05:12:52;18.60;59.70
28087;DHT22;15392;48.912;8.380;2022-10-26T05:15:18;18.60;59.80
28087;DHT22;15392;48.912;8.380;2022-10-26T05:17:44;18.60;59.60
28087;DHT22;15392;48.912;8.380;2022-10-26T05:20:10;18.70;59.60
28087;DHT22;15392;48.912;8.380;2022-10-26T05:22:39;18.70;59.60
28087;DHT22;15392;48.912;8.380;2022-10-26T05:25:05;18.70;59.60
28087;DHT22;15392;48.912;8.380;2022-10-26T05:27:31;18.70;59.50
28087;DHT22;15392;48.912;8.380;2022-10-26T05:29:57;18.70;59.50
28087;DHT22;15392;48.912;8.380;2022-10-26T05:32:22;18.70;59.50
28087;DHT22;15392;48.912;8.380;2022-10-26T05:34:48;18.70;59.50
28087;DHT22;15392;48.912;8.380;2022-10-26T05:37:14;18.70;59.60
28087;DHT22;15392;48.912;8.380;2022-10-26T05:39:40;18.70;59.50
28087;DHT22;15392;48.912;8.380;2022-10-26T05:42:05;18.70;59.50
28087;DHT22;15392;48.912;8.380;2022-10-26T05:44:31;18.70;59.50
28087;DHT22;15392;48.912;8.380;2022-10-26T05:46:57;18.70;59.50
28087;DHT22;15392;48.912;8.380;2022-10-26T05:49:22;18.70;59.50
28087;DHT22;15392;48.912;8.380;2022-10-26T05:51:48;18.70;59.40
28087;DHT22;15392;48.912;8.380;2022-10-26T05:54:14;18.70;59.40
28087;DHT22;15392;48.912;8.380;2022-10-26T05:56:40;18.70;59.40
28087;DHT22;15392;48.912;8.380;2022-10-26T05:59:14;18.70;59.40
28087;DHT22;15392;48.912;8.380;2022-10-26T06:05:07;18.60;59.90
28087;DHT22;15392;48.912;8.380;2022-10-26T06:07:35;18.60;59.30
28087;DHT22;15392;48.912;8.380;2022-10-26T06:10:03;18.60;59.50
28087;DHT22;15392;48.912;8.380;2022-10-26T06:12:29;18.50;59.60
28087;DHT22;15392;48.912;8.380;2022-10-26T06:14:55;18.60;59.70
28087;DHT22;15392;48.912;8.380;2022-10-26T06:20:29;18.60;60.00
28087;DHT22;15392;48.912;8.380;2022-10-26T06:23:29;18.60;60.30
28087;DHT22;15392;48.912;8.380;2022-10-26T06:29:01;18.60;59.80
28087;DHT22;15392;48.912;8.380;2022-10-26T06:31:32;18.50;59.80
28087;DHT22;15392;48.912;8.380;2022-10-26T06:33:59;18.60;59.70
28087;DHT22;15392;48.912;8.380;2022-10-26T06:36:26;18.50;59.80
28087;DHT22;15392;48.912;8.380;2022-10-26T06:39:08;18.50;59.80
28087;DHT22;15392;48.912;8.380;2022-10-26T06:41:35;18.60;60.30
28087;DHT22;15392;48.912;8.380;2022-10-26T06:44:03;18.60;60.00
28087;DHT22;15392;48.912;8.380;2022-10-26T06:51:59;18.50;60.60
28087;DHT22;15392;48.912;8.380;2022-10-26T06:57:08;18.50;60.00
28087;DHT22;15392;48.912;8.380;2022-10-26T06:59:45;18.50;60.10
28087;DHT22;15392;48.912;8.380;2022-10-26T07:02:20;18.60;61.00
28087;DHT22;15392;48.912;8.380;2022-10-26T07:04:47;18.60;59.90
28087;DHT22;15392;48.912;8.380;2022-10-26T07:07:24;18.60;60.10
28087;DHT22;15392;48.912;8.380;2022-10-26T07:09:51;18.60;60.80
28087;DHT22;15392;48.912;8.380;2022-10-26T07:12:17;18.60;60.20
28087;DHT22;15392;48.912;8.380;2022-10-26T07:14:43;18.60;60.20
28087;DHT22;15392;48.912;8.380;2022-10-26T07:17:10;18.60;60.30
28087;DHT22;15392;48.912;8.380;2022-10-26T07:19:36;18.70;60.30
28087;DHT22;15392;48.912;8.380;2022-10-26T07:22:02;18.70;60.30
28087;DHT22;15392;48.912;8.380;2022-10-26T07:24:28;18.70;60.30
28087;DHT22;15392;48.912;8.380;2022-10-26T07:26:55;18.70;60.40
28087;DHT22;15392;48.912;8.380;2022-10-26T07:29:22;18.70;60.50
28087;DHT22;15392;48.912;8.380;2022-10-26T07:31:48;18.70;60.50
28087;DHT22;15392;48.912;8.380;2022-10-26T07:34:14;18.70;60.50
28087;DHT22;15392;48.912;8.380;2022-10-26T07:36:40;18.70;60.60
28087;DHT22;15392;48.912;8.380;2022-10-26T07:39:06;18.80;60.70
28087;DHT22;15392;48.912;8.380;2022-10-26T07:41:33;18.80;60.80
28087;DHT22;15392;48.912;8.380;2022-10-26T07:43:58;18.80;60.80
28087;DHT22;15392;48.912;8.380;2022-10-26T07:46:25;18.80;60.70
28087;DHT22;15392;48.912;8.380;2022-10-26T07:48:51;18.90;60.70
28087;DHT22;15392;48.912;8.380;2022-10-26T07:51:16;18.90;60.70
28087;DHT22;15392;48.912;8.380;2022-10-26T07:53:43;18.90;60.60
28087;DHT22;15392;48.912;8.380;2022-10-26T07:56:09;19.00;60.70
28087;DHT22;15392;48.912;8.380;2022-10-26T07:58:35;19.00;60.60
28087;DHT22;15392;48.912;8.380;2022-10-26T08:01:13;19.00;60.60
28087;DHT22;15392;48.912;8.380;2022-10-26T08:03:40;19.00;61.10
28087;DHT22;15392;48.912;8.380;2022-10-26T08:06:06;19.10;60.60
28087;DHT22;15392;48.912;8.380;2022-10-26T08:08:33;19.10;60.80
28087;DHT22;15392;48.912;8.380;2022-10-26T08:10:59;19.10;60.70
28087;DHT22;15392;48.912;8.380;2022-10-26T08:13:25;19.20;60.80
28087;DHT22;15392;48.912;8.380;2022-10-26T08:15:59;19.20;60.60
28087;DHT22;15392;48.912;8.380;2022-10-26T08:18:26;19.20;60.80
28087;DHT22;15392;48.912;8.380;2022-10-26T08:20:52;19.30;60.50
28087;DHT22;15392;48.912;8.380;2022-10-26T08:23:18;19.30;60.50
28087;DHT22;15392;48.912;8.380;2022-10-26T08:25:44;19.30;60.50
28087;DHT22;15392;48.912;8.380;2022-10-26T08:28:10;19.40;60.60
28087;DHT22;15392;48.912;8.380;2022-10-26T08:30:36;19.40;60.60
28087;DHT22;15392;48.912;8.380;2022-10-26T08:33:04;19.40;60.50
28087;DHT22;15392;48.912;8.380;2022-10-26T08:35:32;19.40;60.50
28087;DHT22;15392;48.912;8.380;2022-10-26T08:37:58;19.50;60.60
28087;DHT22;15392;48.912;8.380;2022-10-26T08:40:30;19.50;60.70
28087;DHT22;15392;48.912;8.380;2022-10-26T08:43:46;19.60;60.70
28087;DHT22;15392;48.912;8.380;2022-10-26T08:46:15;19.60;60.90
28087;DHT22;15392;48.912;8.380;2022-10-26T08:48:52;19.60;61.10
28087;DHT22;15392;48.912;8.380;2022-10-26T08:51:33;19.70;60.80
28087;DHT22;15392;48.912;8.380;2022-10-26T08:54:02;19.80;61.20
28087;DHT22;15392;48.912;8.380;2022-10-26T08:56:41;19.80;61.40
28087;DHT22;15392;48.912;8.380;2022-10-26T09:00:00;19.90;61.30
28087;DHT22;15392;48.912;8.380;2022-10-26T09:02:21;20.10;62.10
28087;DHT22;15392;48.912;8.380;2022-10-26T09:04:50;20.30;61.50
28087;DHT22;15392;48.912;8.380;2022-10-26T09:07:44;20.50;61.30
28087;DHT22;15392;48.912;8.380;2022-10-26T09:10:22;20.70;61.60
28087;DHT22;15392;48.912;8.380;2022-10-26T09:13:27;20.80;61.20
28087;DHT22;15392;48.912;8.380;2022-10-26T09:19:22;21.20;61.10
28087;DHT22;15392;48.912;8.380;2022-10-26T09:22:23;21.40;60.90
28087;DHT22;15392;48.912;8.380;2022-10-26T09:24:57;21.60;60.10
28087;DHT22;15392;48.912;8.380;2022-10-26T09:27:31;21.70;59.90
28087;DHT22;15392;48.912;8.380;2022-10-26T09:30:13;21.80;60.10
28087;DHT22;15392;48.912;8.380;2022-10-26T09:32:51;22.00;60.30
28087;DHT22;15392;48.912;8.380;2022-10-26T09:35:32;22.20;60.30
28087;DHT22;15392;48.912;8.380;2022-10-26T09:38:35;22.50;60.20
28087;DHT22;15392;48.912;8.380;2022-10-26T09:44:03;23.00;59.70
28087;DHT22;15392;48.912;8.380;2022-10-26T09:49:59;23.40;58.90
28087;DHT22;15392;48.912;8.380;2022-10-26T09:52:29;23.60;58.70
28087;DHT22;15392;48.912;8.380;2022-10-26T09:54:55;23.70;58.40
28087;DHT22;15392;48.912;8.380;2022-10-26T09:57:21;23.70;58.00
28087;DHT22;15392;48.912;8.380;2022-10-26T09:59:46;23.70;57.80
28087;DHT22;15392;48.912;8.380;2022-10-26T10:05:00;23.70;57.20
28087;DHT22;15392;48.912;8.380;2022-10-26T10:07:26;23.70;57.50
28087;DHT22;15392;48.912;8.380;2022-10-26T10:10:14;23.70;57.50
28087;DHT22;15392;48.912;8.380;2022-10-26T10:12:42;23.70;57.50
28087;DHT22;15392;48.912;8.380;2022-10-26T10:17:50;23.90;57.90
28087;DHT22;15392;48.912;8.380;2022-10-26T10:20:32;24.00;58.20
28087;DHT22;15392;48.912;8.380;2022-10-26T10:23:01;24.10;58.00
28087;DHT22;15392;48.912;8.380;2022-10-26T10:25:36;24.30;57.90
28087;DHT22;15392;48.912;8.380;2022-10-26T10:28:24;24.30;57.20
28087;DHT22;15392;48.912;8.380;2022-10-26T10:31:04;24.40;56.00
28087;DHT22;15392;48.912;8.380;2022-10-26T10:33:33;24.40;55.90
28087;DHT22;15392;48.912;8.380;2022-10-26T10:36:09;24.40;56.40
28087;DHT22;15392;48.912;8.380;2022-10-26T10:38:38;24.30;56.30
28087;DHT22;15392;48.912;8.380;2022-10-26T10:41:19;24.30;56.60
28087;DHT22;15392;48.912;8.380;2022-10-26T10:44:24;24.30;56.10
28087;DHT22;15392;48.912;8.380;2022-10-26T10:47:04;24.30;55.20
28087;DHT22;15392;48.912;8.380;2022-10-26T10:49:32;24.20;55.50
28087;DHT22;15392;48.912;8.380;2022-10-26T10:51:59;24.20;56.30
28087;DHT22;15392;48.912;8.380;2022-10-26T10:54:38;24.20;57.00
28087;DHT22;15392;48.912;8.380;2022-10-26T10:57:17;24.20;55.90
28087;DHT22;15392;48.912;8.380;2022-10-26T11:00:02;24.20;56.00
28087;DHT22;15392;48.912;8.380;2022-10-26T11:05:37;24.20;55.90
28087;DHT22;15392;48.912;8.380;2022-10-26T11:08:09;24.30;56.30
28087;DHT22;15392;48.912;8.380;2022-10-26T11:14:11;24.50;55.70
28087;DHT22;15392;48.912;8.380;2022-10-26T11:16:43;24.50;55.50
28087;DHT22;15392;48.912;8.380;2022-10-26T11:19:34;24.50;56.00
28087;DHT22;15392;48.912;8.380;2022-10-26T11:22:10;24.60;54.80
28087;DHT22;15392;48.912;8.380;2022-10-26T11:24:56;24.60;55.20
28087;DHT22;15392;48.912;8.380;2022-10-26T11:27:35;24.70;54.70
28087;DHT22;15392;48.912;8.380;2022-10-26T11:30:21;24.70;55.20
28087;DHT22;15392;48.912;8.380;2022-10-26T11:36:07;24.70;54.80
28087;DHT22;15392;48.912;8.380;2022-10-26T11:38:48;24.80;54.40
28087;DHT22;15392;48.912;8.380;2022-10-26T11:47:08;25.00;55.30
28087;DHT22;15392;48.912;8.380;2022-10-26T11:50:31;25.10;55.10
28087;DHT22;15392;48.912;8.380;2022-10-26T11:53:09;25.30;53.50
28087;DHT22;15392;48.912;8.380;2022-10-26T11:55:39;25.30;53.80
28087;DHT22;15392;48.912;8.380;2022-10-26T11:58:07;25.30;54.30
28087;DHT22;15392;48.912;8.380;2022-10-26T12:00:43;25.30;53.90
28087;DHT22;15392;48.912;8.380;2022-10-26T12:03:17;25.30;54.00
28087;DHT22;15392;48.912;8.380;2022-10-26T12:05:47;25.30;53.60
28087;DHT22;15392;48.912;8.380;2022-10-26T12:21:54;25.30;54.00
28087;DHT22;15392;48.912;8.380;2022-10-26T12:24:30;25.30;53.80
28087;DHT22;15392;48.912;8.380;2022-10-26T12:32:48;25.30;52.50
28087;DHT22;15392;48.912;8.380;2022-10-26T12:35:41;25.30;54.00
28087;DHT22;15392;48.912;8.380;2022-10-26T12:48:48;25.50;52.40
28087;DHT22;15392;48.912;8.380;2022-10-26T12:56:31;25.50;52.70
28087;DHT22;15392;48.912;8.380;2022-10-26T13:07:25;25.60;52.60
28087;DHT22;15392;48.912;8.380;2022-10-26T13:10:23;25.60;53.50
28087;DHT22;15392;48.912;8.380;2022-10-26T13:12:54;25.60;53.10
28087;DHT22;15392;48.912;8.380;2022-10-26T13:15:38;25.60;53.20
28087;DHT22;15392;48.912;8.380;2022-10-26T13:18:18;25.60;52.20
28087;DHT22;15392;48.912;8.380;2022-10-26T13:21:05;25.60;53.80
28087;DHT22;15392;48.912;8.380;2022-10-26T13:23:36;25.70;53.20
28087;DHT22;15392;48.912;8.380;2022-10-26T13:26:25;25.60;53.20
28087;DHT22;15392;48.912;8.380;2022-10-26T13:28:55;25.70;53.20
28087;DHT22;15392;48.912;8.380;2022-10-26T13:36:48;25.70;53.40
28087;DHT22;15392;48.912;8.380;2022-10-26T13:39:25;25.70;52.50
28087;DHT22;15392;48.912;8.380;2022-10-26T13:41:54;25.70;52.20
28087;DHT22;15392;48.912;8.380;2022-10-26T13:44:27;25.70;52.90
28087;DHT22;15392;48.912;8.380;2022-10-26T13:47:04;25.70;52.80
28087;DHT22;15392;48.912;8.380;2022-10-26T13:49:40;25.70;52.50
28087;DHT22;15392;48.912;8.380;2022-10-26T13:52:22;25.80;52.80
28087;DHT22;15392;48.912;8.380;2022-10-26T13:55:02;25.80;52.10
28087;DHT22;15392;48.912;8.380;2022-10-26T13:57:43;25.80;52.00
28087;DHT22;15392;48.912;8.380;2022-10-26T14:00:34;25.80;53.00
28087;DHT22;15392;48.912;8.380;2022-10-26T14:03:11;25.80;53.30
28087;DHT22;15392;48.912;8.380;2022-10-26T14:05:42;25.80;52.30
28087;DHT22;15392;48.912;8.380;2022-10-26T14:08:15;25.80;53.20
28087;DHT22;15392;48.912;8.380;2022-10-26T14:10:45;25.90;53.20
28087;DHT22;15392;48.912;8.380;2022-10-26T14:13:14;25.90;53.40
28087;DHT22;15392;48.912;8.380;2022-10-26T14:15:45;25.90;53.20
28087;DHT22;15392;48.912;8.380;2022-10-26T14:18:25;25.90;53.00
28087;DHT22;15392;48.912;8.380;2022-10-26T14:21:00;25.90;52.80
28087;DHT22;15392;48.912;8.380;2022-10-26T14:23:33;25.90;53.10
28087;DHT22;15392;48.912;8.380;2022-10-26T14:26:00;25.90;52.70
28087;DHT22;15392;48.912;8.380;2022-10-26T14:28:32;25.90;53.20
28087;DHT22;15392;48.912;8.380;2022-10-26T14:31:21;25.90;52.70
28087;DHT22;15392;48.912;8.380;2022-10-26T14:33:52;25.90;52.30
28087;DHT22;15392;48.912;8.380;2022-10-26T14:36:20;25.90;53.40
28087;DHT22;15392;48.912;8.380;2022-10-26T14:39:03;25.90;53.20
28087;DHT22;15392;48.912;8.380;2022-10-26T14:41:34;25.90;53.10
28087;DHT22;15392;48.912;8.380;2022-10-26T14:44:01;25.90;53.30
28087;DHT22;15392;48.912;8.380;2022-10-26T14:46:31;25.90;53.40
28087;DHT22;15392;48.912;8.380;2022-10-26T14:48:59;25.90;53.10
28087;DHT22;15392;48.912;8.380;2022-10-26T14:51:28;25.80;53.20
28087;DHT22;15392;48.912;8.380;2022-10-26T14:53:59;25.80;53.30
28087;DHT22;15392;48.912;8.380;2022-10-26T14:59:11;25.80;52.70
28087;DHT22;15392;48.912;8.380;2022-10-26T15:02:00;25.80;52.70
28087;DHT22;15392;48.912;8.380;2022-10-26T15:04:37;25.80;52.60
28087;DHT22;15392;48.912;8.380;2022-10-26T15:07:14;25.80;53.40
28087;DHT22;15392;48.912;8.380;2022-10-26T15:09:46;25.80;53.00
28087;DHT22;15392;48.912;8.380;2022-10-26T15:15:19;25.80;53.10
28087;DHT22;15392;48.912;8.380;2022-10-26T15:17:52;25.80;53.40
28087;DHT22;15392;48.912;8.380;2022-10-26T15:20:21;25.80;54.20
28087;DHT22;15392;48.912;8.380;2022-10-26T15:22:53;25.70;54.30
28087;DHT22;15392;48.912;8.380;2022-10-26T15:25:23;25.70;54.30
28087;DHT22;15392;48.912;8.380;2022-10-26T15:27:51;25.70;54.30
28087;DHT22;15392;48.912;8.380;2022-10-26T15:30:24;25.60;54.40
28087;DHT22;15392;48.912;8.380;2022-10-26T15:32:52;25.60;54.30
28087;DHT22;15392;48.912;8.380;2022-10-26T15:37:53;25.50;54.40
28087;DHT22;15392;48.912;8.380;2022-10-26T15:40:20;25.40;54.50
28087;DHT22;15392;48.912;8.380;2022-10-26T15:42:50;25.30;54.40
28087;DHT22;15392;48.912;8.380;2022-10-26T15:47:51;25.20;53.80
28087;DHT22;15392;48.912;8.380;2022-10-26T15:50:23;25.10;54.40
28087;DHT22;15392;48.912;8.380;2022-10-26T15:53:01;25.10;54.50
28087;DHT22;15392;48.912;8.380;2022-10-26T15:55:33;24.90;54.40
28087;DHT22;15392;48.912;8.380;2022-10-26T15:58:00;24.80;54.60
28087;DHT22;15392;48.912;8.380;2022-10-26T16:00:25;24.70;54.70
28087;DHT22;15392;48.912;8.380;2022-10-26T16:02:51;24.70;54.80
28087;DHT22;15392;48.912;8.380;2022-10-26T16:05:17;24.50;54.80
28087;DHT22;15392;48.912;8.380;2022-10-26T16:07:44;24.50;55.50
28087;DHT22;15392;48.912;8.380;2022-10-26T16:10:21;24.30;54.90
28087;DHT22;15392;48.912;8.380;2022-10-26T16:12:49;24.20;54.80
28087;DHT22;15392;48.912;8.380;2022-10-26T16:15:18;24.10;55.00
28087;DHT22;15392;48.912;8.380;2022-10-26T16:17:47;24.00;55.00
28087;DHT22;15392;48.912;8.380;2022-10-26T16:20:18;24.00;55.10
28087;DHT22;15392;48.912;8.380;2022-10-26T16:22:50;23.80;55.10
28087;DHT22;15392;48.912;8.380;2022-10-26T16:25:18;23.70;55.10
28087;DHT22;15392;48.912;8.380;2022-10-26T16:27:46;23.70;55.20
28087;DHT22;15392;48.912;8.380;2022-10-26T16:30:14;23.60;55.30
28087;DHT22;15392;48.912;8.380;2022-10-26T16:32:41;23.50;55.30
28087;DHT22;15392;48.912;8.380;2022-10-26T16:35:08;23.40;55.40
28087;DHT22;15392;48.912;8.380;2022-10-26T16:37:34;23.30;55.50
28087;DHT22;15392;48.912;8.380;2022-10-26T16:40:00;23.30;55.60
28087;DHT22;15392;48.912;8.380;2022-10-26T16:42:26;23.10;55.70
28087;DHT22;15392;48.912;8.380;2022-10-26T16:44:55;23.10;55.80
28087;DHT22;15392;48.912;8.380;2022-10-26T16:47:21;23.00;55.80
28087;DHT22;15392;48.912;8.380;2022-10-26T16:49:47;22.90;55.90
28087;DHT22;15392;48.912;8.380;2022-10-26T16:52:13;22.90;56.00
28087;DHT22;15392;48.912;8.380;2022-10-26T16:54:39;22.80;56.10
28087;DHT22;15392;48.912;8.380;2022-10-26T16:57:05;22.80;56.20
28087;DHT22;15392;48.912;8.380;2022-10-26T16:59:31;22.70;56.20
28087;DHT22;15392;48.912;8.380;2022-10-26T17:01:57;22.60;56.20
28087;DHT22;15392;48.912;8.380;2022-10-26T17:04:23;22.60;56.30
28087;DHT22;15392;48.912;8.380;2022-10-26T17:06:49;22.50;56.40
28087;DHT22;15392;48.912;8.380;2022-10-26T17:09:14;22.50;56.40
28087;DHT22;15392;48.912;8.380;2022-10-26T17:11:40;22.40;56.40
28087;DHT22;15392;48.912;8.380;2022-10-26T17:14:07;22.40;56.50
28087;DHT22;15392;48.912;8.380;2022-10-26T17:16:33;22.30;56.50
28087;DHT22;15392;48.912;8.380;2022-10-26T17:18:59;22.30;56.60
28087;DHT22;15392;48.912;8.380;2022-10-26T17:21:31;22.20;56.60
28087;DHT22;15392;48.912;8.380;2022-10-26T17:23:59;22.20;56.70
28087;DHT22;15392;48.912;8.380;2022-10-26T17:26:25;22.10;56.60
28087;DHT22;15392;48.912;8.380;2022-10-26T17:28:52;22.10;56.80
28087;DHT22;15392;48.912;8.380;2022-10-26T17:31:21;22.00;56.80
28087;DHT22;15392;48.912;8.380;2022-10-26T17:33:47;22.00;56.90
28087;DHT22;15392;48.912;8.380;2022-10-26T17:36:19;22.00;57.00
28087;DHT22;15392;48.912;8.380;2022-10-26T17:38:51;21.90;57.00
28087;DHT22;15392;48.912;8.380;2022-10-26T17:41:20;21.90;57.10
28087;DHT22;15392;48.912;8.380;2022-10-26T17:43:48;21.80;57.10
28087;DHT22;15392;48.912;8.380;2022-10-26T17:46:16;21.80;57.20
28087;DHT22;15392;48.912;8.380;2022-10-26T17:48:51;21.80;57.20
28087;DHT22;15392;48.912;8.380;2022-10-26T17:51:18;21.70;57.10
28087;DHT22;15392;48.912;8.380;2022-10-26T17:53:48;21.70;57.20
28087;DHT22;15392;48.912;8.380;2022-10-26T17:56:22;21.70;57.30
28087;DHT22;15392;48.912;8.380;2022-10-26T17:58:54;21.60;57.30
28087;DHT22;15392;48.912;8.380;2022-10-26T18:01:21;21.60;57.20
28087;DHT22;15392;48.912;8.380;2022-10-26T18:03:47;21.60;57.30
28087;DHT22;15392;48.912;8.380;2022-10-26T18:06:13;21.50;57.30